sensor_id;sensor_type;location;lat;lon;timestamp;P1;durP1;ratioP1;P2;durP2;ratioP2
2001;SDS011;1003;48.002;7.788;2022-11-15T00:00:50;3.40;;;2.60;;
2001;SDS011;1003;48.002;7.788;2022-11-15T00:03:18;4.80;;;2.43;;
2001;SDS011;1003;48.002;7.788;2022-11-15T00:05:48;3.20;;;2.50;;
2001;SDS011;1003;48.002;7.788;2022-11-15T00:08:16;2.90;;;2.30;;
2001;SDS011;1003;48.002;7.788;2022-11-15T00:10:53;2.70;;;2.33;;
2001;SDS011;1003;48.002;7.788;2022-11-15T00:13:21;4.50;;;2.70;;
2001;SDS011;1003;48.002;7.788;2022-11-15T00:15:50;3.53;;;2.40;;
2001;SDS011;1003;48.002;7.788;2022-11-15T00:18:17;5.33;;;2.50;;
2001;SDS011;1003;48.002;7.788;2022-11-15T00:20:45;2.73;;;2.30;;
2001;SDS011;1003;48.002;7.788;2022-11-15T00:23:12;3.43;;;2.10;;
2001;SDS011;1003;48.002;7.788;2022-11-15T00:25:39;3.50;;;2.27;;
2001;SDS011;1003;48.002;7.788;2022-11-15T00:28:06;3.73;;;2.30;;
2001;SDS011;1003;48.002;7.788;2022-11-15T00:30:33;2.80;;;2.17;;
2001;SDS011;1003;48.002;7.788;2022-11-15T00:33:03;3.13;;;2.13;;
2001;SDS011;1003;48.002;7.788;2022-11-15T00:35:31;3.50;;;2.20;;
2001;SDS011;1003;48.002;7.788;2022-11-15T00:37:59;3.77;;;2.40;;
2001;SDS011;1003;48.002;7.788;2022-11-15T00:40:27;3.57;;;2.30;;
2001;SDS011;1003;48.002;7.788;2022-11-15T00:42:54;4.73;;;2.50;;
2001;SDS011;1003;48.002;7.788;2022-11-15T00:45:21;2.37;;;1.90;;
2001;SDS011;1003;48.002;7.788;2022-11-15T00:47:49;4.10;;;2.40;;
2001;SDS011;1003;48.002;7.788;2022-11-15T00:50:18;3.17;;;2.40;;
2001;SDS011;1003;48.002;7.788;2022-11-15T00:52:45;3.27;;;2.40;;
2001;SDS011;1003;48.002;7.788;2022-11-15T00:55:13;3.87;;;2.60;;
2001;SDS011;1003;48.002;7.788;2022-11-15T00:57:42;5.00;;;2.60;;
2001;SDS011;1003;48.002;7.788;2022-11-15T01:00:09;4.20;;;2.77;;
2001;SDS011;1003;48.002;7.788;2022-11-15T01:02:38;3.57;;;2.60;;
2001;SDS011;1003;48.002;7.788;2022-11-15T01:05:05;2.57;;;2.30;;
2001;SDS011;1003;48.002;7.788;2022-11-15T01:07:35;3.00;;;2.37;;
2001;SDS011;1003;48.002;7.788;2022-11-15T01:10:02;2.57;;;2.20;;
2001;SDS011;1003;48.002;7.788;2022-11-15T01:12:31;5.97;;;2.47;;
2001;SDS011;1003;48.002;7.788;2022-11-15T01:14:59;5.37;;;2.47;;
2001;SDS011;1003;48.002;7.788;2022-11-15T01:17:26;3.73;;;2.53;;
2001;SDS011;1003;48.002;7.788;2022-11-15T01:19:53;3.70;;;2.70;;
2001;SDS011;1003;48.002;7.788;2022-11-15T01:22:20;3.37;;;2.50;;
2001;SDS011;1003;48.002;7.788;2022-11-15T01:24:50;4.73;;;2.77;;
2001;SDS011;1003;48.002;7.788;2022-11-15T01:27:17;3.90;;;2.70;;
2001;SDS011;1003;48.002;7.788;2022-11-15T01:29:44;4.00;;;2.60;;
2001;SDS011;1003;48.002;7.788;2022-11-15T01:32:11;4.63;;;2.57;;
2001;SDS011;1003;48.002;7.788;2022-11-15T01:34:38;3.73;;;2.70;;
2001;SDS011;1003;48.002;7.788;2022-11-15T01:37:05;4.07;;;2.50;;
2001;SDS011;1003;48.002;7.788;2022-11-15T01:39:32;4.07;;;2.77;;
2001;SDS011;1003;48.002;7.788;2022-11-15T01:42:01;2.67;;;2.30;;
2001;SDS011;1003;48.002;7.788;2022-11-15T01:44:31;4.97;;;2.63;;
2001;SDS011;1003;48.002;7.788;2022-11-15T01:47:15;3.40;;;2.47;;
2001;SDS011;1003;48.002;7.788;2022-11-15T01:49:48;3.03;;;2.67;;
2001;SDS011;1003;48.002;7.788;2022-11-15T01:52:22;3.90;;;2.80;;
2001;SDS011;1003;48.002;7.788;2022-11-15T01:54:56;3.17;;;2.43;;
2001;SDS011;1003;48.002;7.788;2022-11-15T01:57:32;4.00;;;2.67;;
2001;SDS011;1003;48.002;7.788;2022-11-15T02:00:01;4.67;;;2.73;;
2001;SDS011;1003;48.002;7.788;2022-11-15T02:02:32;4.87;;;3.00;;
2001;SDS011;1003;48.002;7.788;2022-11-15T02:05:00;5.73;;;2.83;;
2001;SDS011;1003;48.002;7.788;2022-11-15T02:07:28;4.07;;;2.93;;
2001;SDS011;1003;48.002;7.788;2022-11-15T02:09:57;3.33;;;2.70;;
2001;SDS011;1003;48.002;7.788;2022-11-15T02:12:30;4.10;;;2.57;;
2001;SDS011;1003;48.002;7.788;2022-11-15T02:14:58;3.53;;;2.60;;
2001;SDS011;1003;48.002;7.788;2022-11-15T02:17:40;3.13;;;2.60;;
2001;SDS011;1003;48.002;7.788;2022-11-15T02:20:45;5.83;;;2.80;;
2001;SDS011;1003;48.002;7.788;2022-11-15T02:23:41;4.40;;;2.77;;
2001;SDS011;1003;48.002;7.788;2022-11-15T02:30:39;3.97;;;2.67;;
2001;SDS011;1003;48.002;7.788;2022-11-15T02:33:14;4.43;;;2.57;;
2001;SDS011;1003;48.002;7.788;2022-11-15T02:35:57;3.50;;;2.67;;
2001;SDS011;1003;48.002;7.788;2022-11-15T02:38:29;4.10;;;2.80;;
2001;SDS011;1003;48.002;7.788;2022-11-15T02:41:07;3.90;;;2.73;;
2001;SDS011;1003;48.002;7.788;2022-11-15T02:43:43;3.60;;;2.50;;
2001;SDS011;1003;48.002;7.788;2022-11-15T02:46:27;3.03;;;2.60;;
2001;SDS011;1003;48.002;7.788;2022-11-15T02:49:21;3.17;;;2.70;;
2001;SDS011;1003;48.002;7.788;2022-11-15T02:51:50;3.77;;;2.73;;
2001;SDS011;1003;48.002;7.788;2022-11-15T02:54:20;3.63;;;2.40;;
2001;SDS011;1003;48.002;7.788;2022-11-15T02:56:51;4.53;;;2.63;;
2001;SDS011;1003;48.002;7.788;2022-11-15T03:02:59;4.07;;;2.60;;
2001;SDS011;1003;48.002;7.788;2022-11-15T03:05:53;4.47;;;2.53;;
2001;SDS011;1003;48.002;7.788;2022-11-15T03:08:36;3.63;;;2.80;;
2001;SDS011;1003;48.002;7.788;2022-11-15T03:11:15;4.00;;;2.60;;
2001;SDS011;1003;48.002;7.788;2022-11-15T03:13:46;2.70;;;2.50;;
2001;SDS011;1003;48.002;7.788;2022-11-15T03:16:24;3.73;;;2.50;;
2001;SDS011;1003;48.002;7.788;2022-11-15T03:19:02;4.00;;;2.60;;
2001;SDS011;1003;48.002;7.788;2022-11-15T03:21:38;3.40;;;2.53;;
2001;SDS011;1003;48.002;7.788;2022-11-15T03:24:07;3.30;;;2.50;;
2001;SDS011;1003;48.002;7.788;2022-11-15T03:26:36;4.00;;;2.63;;
2001;SDS011;1003;48.002;7.788;2022-11-15T03:29:08;3.60;;;2.90;;
2001;SDS011;1003;48.002;7.788;2022-11-15T03:31:43;5.20;;;2.90;;
2001;SDS011;1003;48.002;7.788;2022-11-15T03:34:15;5.07;;;2.80;;
2001;SDS011;1003;48.002;7.788;2022-11-15T03:36:52;3.67;;;2.57;;
2001;SDS011;1003;48.002;7.788;2022-11-15T03:39:20;3.57;;;2.37;;
2001;SDS011;1003;48.002;7.788;2022-11-15T03:41:50;4.07;;;2.87;;
2001;SDS011;1003;48.002;7.788;2022-11-15T03:44:31;3.43;;;2.63;;
2001;SDS011;1003;48.002;7.788;2022-11-15T03:47:11;4.13;;;2.70;;
2001;SDS011;1003;48.002;7.788;2022-11-15T03:49:46;3.97;;;2.80;;
2001;SDS011;1003;48.002;7.788;2022-11-15T03:52:20;3.63;;;2.60;;
2001;SDS011;1003;48.002;7.788;2022-11-15T03:54:49;4.00;;;3.00;;
2001;SDS011;1003;48.002;7.788;2022-11-15T03:57:19;3.57;;;2.80;;
2001;SDS011;1003;48.002;7.788;2022-11-15T03:59:46;3.33;;;2.80;;
2001;SDS011;1003;48.002;7.788;2022-11-15T04:02:13;4.27;;;2.70;;
2001;SDS011;1003;48.002;7.788;2022-11-15T04:04:40;3.17;;;2.50;;
2001;SDS011;1003;48.002;7.788;2022-11-15T04:07:09;2.93;;;2.50;;
2001;SDS011;1003;48.002;7.788;2022-11-15T04:09:36;4.07;;;2.77;;
2001;SDS011;1003;48.002;7.788;2022-11-15T04:12:24;3.80;;;2.80;;
2001;SDS011;1003;48.002;7.788;2022-11-15T04:14:57;3.27;;;2.47;;
2001;SDS011;1003;48.002;7.788;2022-11-15T04:17:35;3.33;;;2.80;;
2001;SDS011;1003;48.002;7.788;2022-11-15T04:20:06;6.27;;;2.90;;
2001;SDS011;1003;48.002;7.788;2022-11-15T04:22:56;4.37;;;2.77;;
2001;SDS011;1003;48.002;7.788;2022-11-15T04:25:43;3.97;;;2.70;;
2001;SDS011;1003;48.002;7.788;2022-11-15T04:28:11;4.73;;;2.70;;
2001;SDS011;1003;48.002;7.788;2022-11-15T04:30:38;3.00;;;2.50;;
2001;SDS011;1003;48.002;7.788;2022-11-15T04:33:05;4.57;;;2.90;;
2001;SDS011;1003;48.002;7.788;2022-11-15T04:35:32;4.70;;;2.80;;
2001;SDS011;1003;48.002;7.788;2022-11-15T04:38:04;3.67;;;3.10;;
2001;SDS011;1003;48.002;7.788;2022-11-15T04:40:33;4.20;;;2.87;;
2001;SDS011;1003;48.002;7.788;2022-11-15T04:43:01;3.77;;;3.10;;
2001;SDS011;1003;48.002;7.788;2022-11-15T04:45:28;4.00;;;2.90;;
2001;SDS011;1003;48.002;7.788;2022-11-15T04:47:56;3.97;;;2.77;;
2001;SDS011;1003;48.002;7.788;2022-11-15T04:50:23;4.67;;;2.73;;
2001;SDS011;1003;48.002;7.788;2022-11-15T04:52:50;6.73;;;3.47;;
2001;SDS011;1003;48.002;7.788;2022-11-15T04:55:21;5.83;;;2.93;;
2001;SDS011;1003;48.002;7.788;2022-11-15T04:57:56;6.97;;;3.57;;
2001;SDS011;1003;48.002;7.788;2022-11-15T05:00:24;3.10;;;2.63;;
2001;SDS011;1003;48.002;7.788;2022-11-15T05:02:52;3.40;;;2.80;;
2001;SDS011;1003;48.002;7.788;2022-11-15T05:05:37;3.30;;;2.70;;
2001;SDS011;1003;48.002;7.788;2022-11-15T05:08:04;4.27;;;2.67;;
2001;SDS011;1003;48.002;7.788;2022-11-15T05:10:33;5.47;;;3.00;;
2001;SDS011;1003;48.002;7.788;2022-11-15T05:13:00;3.30;;;2.70;;
2001;SDS011;1003;48.002;7.788;2022-11-15T05:15:27;5.83;;;3.10;;
2001;SDS011;1003;48.002;7.788;2022-11-15T05:17:57;3.70;;;2.60;;
2001;SDS011;1003;48.002;7.788;2022-11-15T05:20:25;4.63;;;2.70;;
2001;SDS011;1003;48.002;7.788;2022-11-15T05:22:52;3.37;;;2.63;;
2001;SDS011;1003;48.002;7.788;2022-11-15T05:25:20;4.77;;;2.80;;
2001;SDS011;1003;48.002;7.788;2022-11-15T05:27:49;3.60;;;2.80;;
2001;SDS011;1003;48.002;7.788;2022-11-15T05:30:16;4.43;;;2.70;;
2001;SDS011;1003;48.002;7.788;2022-11-15T05:32:43;4.37;;;2.80;;
2001;SDS011;1003;48.002;7.788;2022-11-15T05:35:12;4.07;;;2.60;;
2001;SDS011;1003;48.002;7.788;2022-11-15T05:37:46;5.60;;;3.00;;
2001;SDS011;1003;48.002;7.788;2022-11-15T05:40:14;4.13;;;2.97;;
2001;SDS011;1003;48.002;7.788;2022-11-15T05:42:42;5.67;;;2.70;;
2001;SDS011;1003;48.002;7.788;2022-11-15T05:45:11;4.33;;;2.90;;
2001;SDS011;1003;48.002;7.788;2022-11-15T05:47:38;3.90;;;2.93;;
2001;SDS011;1003;48.002;7.788;2022-11-15T05:50:07;3.77;;;2.93;;
2001;SDS011;1003;48.002;7.788;2022-11-15T05:52:38;4.40;;;3.20;;
2001;SDS011;1003;48.002;7.788;2022-11-15T05:55:06;4.80;;;2.83;;
2001;SDS011;1003;48.002;7.788;2022-11-15T05:57:35;4.00;;;2.60;;
2001;SDS011;1003;48.002;7.788;2022-11-15T06:00:03;5.27;;;2.73;;
2001;SDS011;1003;48.002;7.788;2022-11-15T06:02:34;3.67;;;3.10;;
2001;SDS011;1003;48.002;7.788;2022-11-15T06:05:01;4.80;;;3.10;;
2001;SDS011;1003;48.002;7.788;2022-11-15T06:07:29;5.53;;;3.10;;
2001;SDS011;1003;48.002;7.788;2022-11-15T06:09:56;4.00;;;3.10;;
2001;SDS011;1003;48.002;7.788;2022-11-15T06:12:23;4.00;;;2.90;;
2001;SDS011;1003;48.002;7.788;2022-11-15T06:14:51;3.70;;;3.00;;
2001;SDS011;1003;48.002;7.788;2022-11-15T06:17:17;3.87;;;2.90;;
2001;SDS011;1003;48.002;7.788;2022-11-15T06:19:46;3.13;;;2.70;;
2001;SDS011;1003;48.002;7.788;2022-11-15T06:22:13;3.80;;;2.60;;
2001;SDS011;1003;48.002;7.788;2022-11-15T06:24:40;4.20;;;3.03;;
2001;SDS011;1003;48.002;7.788;2022-11-15T06:27:08;5.83;;;2.97;;
2001;SDS011;1003;48.002;7.788;2022-11-15T06:29:37;3.63;;;2.67;;
2001;SDS011;1003;48.002;7.788;2022-11-15T06:32:04;4.73;;;3.20;;
2001;SDS011;1003;48.002;7.788;2022-11-15T06:34:31;3.57;;;2.83;;
2001;SDS011;1003;48.002;7.788;2022-11-15T06:37:02;5.27;;;3.03;;
2001;SDS011;1003;48.002;7.788;2022-11-15T06:39:29;5.27;;;2.90;;
2001;SDS011;1003;48.002;7.788;2022-11-15T06:41:56;3.50;;;2.70;;
2001;SDS011;1003;48.002;7.788;2022-11-15T06:44:23;3.93;;;2.70;;
2001;SDS011;1003;48.002;7.788;2022-11-15T06:46:50;3.20;;;2.60;;
2001;SDS011;1003;48.002;7.788;2022-11-15T06:49:17;3.47;;;2.73;;
2001;SDS011;1003;48.002;7.788;2022-11-15T06:51:44;3.83;;;2.90;;
2001;SDS011;1003;48.002;7.788;2022-11-15T06:54:13;3.77;;;2.97;;
2001;SDS011;1003;48.002;7.788;2022-11-15T06:56:40;3.20;;;2.60;;
2001;SDS011;1003;48.002;7.788;2022-11-15T06:59:07;3.70;;;2.83;;
2001;SDS011;1003;48.002;7.788;2022-11-15T07:01:34;4.83;;;3.10;;
2001;SDS011;1003;48.002;7.788;2022-11-15T07:04:01;4.03;;;2.90;;
2001;SDS011;1003;48.002;7.788;2022-11-15T07:06:28;4.33;;;2.80;;
2001;SDS011;1003;48.002;7.788;2022-11-15T07:08:55;3.83;;;2.77;;
2001;SDS011;1003;48.002;7.788;2022-11-15T07:11:23;3.90;;;2.60;;
2001;SDS011;1003;48.002;7.788;2022-11-15T07:13:51;3.43;;;2.47;;
2001;SDS011;1003;48.002;7.788;2022-11-15T07:16:18;4.80;;;3.00;;
2001;SDS011;1003;48.002;7.788;2022-11-15T07:18:45;3.47;;;2.73;;
2001;SDS011;1003;48.002;7.788;2022-11-15T07:21:12;3.80;;;3.00;;
2001;SDS011;1003;48.002;7.788;2022-11-15T07:23:39;5.20;;;3.27;;
2001;SDS011;1003;48.002;7.788;2022-11-15T07:26:07;3.53;;;2.80;;
2001;SDS011;1003;48.002;7.788;2022-11-15T07:28:36;3.67;;;2.70;;
2001;SDS011;1003;48.002;7.788;2022-11-15T07:31:03;2.83;;;2.53;;
2001;SDS011;1003;48.002;7.788;2022-11-15T07:33:32;5.03;;;3.10;;
2001;SDS011;1003;48.002;7.788;2022-11-15T07:35:59;4.43;;;2.70;;
2001;SDS011;1003;48.002;7.788;2022-11-15T07:38:27;3.53;;;2.73;;
2001;SDS011;1003;48.002;7.788;2022-11-15T07:40:56;4.77;;;2.80;;
2001;SDS011;1003;48.002;7.788;2022-11-15T07:43:24;4.73;;;3.00;;
2001;SDS011;1003;48.002;7.788;2022-11-15T07:45:54;4.33;;;2.90;;
2001;SDS011;1003;48.002;7.788;2022-11-15T07:48:21;6.10;;;2.90;;
2001;SDS011;1003;48.002;7.788;2022-11-15T07:50:49;2.90;;;2.67;;
2001;SDS011;1003;48.002;7.788;2022-11-15T07:53:16;3.57;;;2.93;;
2001;SDS011;1003;48.002;7.788;2022-11-15T07:55:43;3.50;;;2.67;;
2001;SDS011;1003;48.002;7.788;2022-11-15T07:58:10;4.10;;;2.60;;
2001;SDS011;1003;48.002;7.788;2022-11-15T08:00:38;3.27;;;2.60;;
2001;SDS011;1003;48.002;7.788;2022-11-15T08:03:07;3.60;;;3.20;;
2001;SDS011;1003;48.002;7.788;2022-11-15T08:05:37;4.53;;;3.10;;
2001;SDS011;1003;48.002;7.788;2022-11-15T08:08:06;4.10;;;3.10;;
2001;SDS011;1003;48.002;7.788;2022-11-15T08:10:35;3.80;;;3.13;;
2001;SDS011;1003;48.002;7.788;2022-11-15T08:13:03;4.70;;;2.90;;
2001;SDS011;1003;48.002;7.788;2022-11-15T08:15:32;5.33;;;2.60;;
2001;SDS011;1003;48.002;7.788;2022-11-15T08:18:01;4.53;;;2.90;;
2001;SDS011;1003;48.002;7.788;2022-11-15T08:20:32;3.77;;;2.80;;
2001;SDS011;1003;48.002;7.788;2022-11-15T08:23:00;4.93;;;2.93;;
2001;SDS011;1003;48.002;7.788;2022-11-15T08:25:31;4.20;;;2.70;;
2001;SDS011;1003;48.002;7.788;2022-11-15T08:28:01;3.23;;;2.60;;
2001;SDS011;1003;48.002;7.788;2022-11-15T08:30:34;4.17;;;3.03;;
2001;SDS011;1003;48.002;7.788;2022-11-15T08:33:04;3.83;;;3.10;;
2001;SDS011;1003;48.002;7.788;2022-11-15T08:35:32;4.70;;;3.30;;
2001;SDS011;1003;48.002;7.788;2022-11-15T08:38:00;3.40;;;2.70;;
2001;SDS011;1003;48.002;7.788;2022-11-15T08:40:27;2.87;;;2.40;;
2001;SDS011;1003;48.002;7.788;2022-11-15T08:42:54;2.60;;;2.30;;
2001;SDS011;1003;48.002;7.788;2022-11-15T08:45:21;2.30;;;2.10;;
2001;SDS011;1003;48.002;7.788;2022-11-15T08:47:48;3.03;;;2.57;;
2001;SDS011;1003;48.002;7.788;2022-11-15T08:50:15;4.70;;;2.67;;
2001;SDS011;1003;48.002;7.788;2022-11-15T08:52:44;3.63;;;2.73;;
2001;SDS011;1003;48.002;7.788;2022-11-15T08:55:13;3.83;;;3.03;;
2001;SDS011;1003;48.002;7.788;2022-11-15T08:57:40;4.60;;;3.00;;
2001;SDS011;1003;48.002;7.788;2022-11-15T09:00:07;3.87;;;3.10;;
2001;SDS011;1003;48.002;7.788;2022-11-15T09:02:37;6.57;;;3.27;;
2001;SDS011;1003;48.002;7.788;2022-11-15T09:05:05;5.53;;;3.17;;
2001;SDS011;1003;48.002;7.788;2022-11-15T09:07:33;3.33;;;3.00;;
2001;SDS011;1003;48.002;7.788;2022-11-15T09:10:02;4.83;;;3.30;;
2001;SDS011;1003;48.002;7.788;2022-11-15T09:12:30;4.00;;;3.00;;
2001;SDS011;1003;48.002;7.788;2022-11-15T09:14:57;5.17;;;2.93;;
2001;SDS011;1003;48.002;7.788;2022-11-15T09:17:24;4.87;;;2.87;;
2001;SDS011;1003;48.002;7.788;2022-11-15T09:19:51;3.60;;;2.70;;
2001;SDS011;1003;48.002;7.788;2022-11-15T09:22:18;4.23;;;2.93;;
2001;SDS011;1003;48.002;7.788;2022-11-15T09:24:45;3.37;;;2.83;;
2001;SDS011;1003;48.002;7.788;2022-11-15T09:27:13;3.47;;;3.07;;
2001;SDS011;1003;48.002;7.788;2022-11-15T09:29:40;4.53;;;3.17;;
2001;SDS011;1003;48.002;7.788;2022-11-15T09:32:07;4.57;;;3.17;;
2001;SDS011;1003;48.002;7.788;2022-11-15T09:34:35;4.57;;;3.10;;
2001;SDS011;1003;48.002;7.788;2022-11-15T09:37:02;5.53;;;3.60;;
2001;SDS011;1003;48.002;7.788;2022-11-15T09:39:29;5.47;;;3.47;;
2001;SDS011;1003;48.002;7.788;2022-11-15T09:42:16;4.53;;;3.37;;
2001;SDS011;1003;48.002;7.788;2022-11-15T09:45:04;4.10;;;3.10;;
2001;SDS011;1003;48.002;7.788;2022-11-15T09:47:53;3.73;;;2.80;;
2001;SDS011;1003;48.002;7.788;2022-11-15T09:50:48;4.50;;;3.30;;
2001;SDS011;1003;48.002;7.788;2022-11-15T09:53:21;4.47;;;3.10;;
2001;SDS011;1003;48.002;7.788;2022-11-15T09:55:54;6.27;;;3.40;;
2001;SDS011;1003;48.002;7.788;2022-11-15T09:58:31;3.67;;;2.87;;
2001;SDS011;1003;48.002;7.788;2022-11-15T10:01:06;4.77;;;3.10;;
2001;SDS011;1003;48.002;7.788;2022-11-15T10:03:44;4.80;;;3.13;;
2001;SDS011;1003;48.002;7.788;2022-11-15T10:06:16;8.43;;;3.73;;
2001;SDS011;1003;48.002;7.788;2022-11-15T10:08:51;6.33;;;4.77;;
2001;SDS011;1003;48.002;7.788;2022-11-15T10:11:28;7.47;;;5.50;;
2001;SDS011;1003;48.002;7.788;2022-11-15T10:14:01;6.70;;;4.90;;
2001;SDS011;1003;48.002;7.788;2022-11-15T10:16:41;8.20;;;4.97;;
2001;SDS011;1003;48.002;7.788;2022-11-15T10:19:45;7.07;;;4.33;;
2001;SDS011;1003;48.002;7.788;2022-11-15T10:22:25;5.97;;;4.40;;
2001;SDS011;1003;48.002;7.788;2022-11-15T10:25:01;8.63;;;4.00;;
2001;SDS011;1003;48.002;7.788;2022-11-15T10:27:46;5.60;;;3.93;;
2001;SDS011;1003;48.002;7.788;2022-11-15T10:30:23;6.50;;;4.23;;
2001;SDS011;1003;48.002;7.788;2022-11-15T10:32:58;5.87;;;4.13;;
2001;SDS011;1003;48.002;7.788;2022-11-15T10:35:47;5.50;;;4.07;;
2001;SDS011;1003;48.002;7.788;2022-11-15T10:38:14;6.50;;;3.73;;
2001;SDS011;1003;48.002;7.788;2022-11-15T10:40:42;5.00;;;3.80;;
2001;SDS011;1003;48.002;7.788;2022-11-15T10:43:14;6.97;;;4.37;;
2001;SDS011;1003;48.002;7.788;2022-11-15T10:45:45;7.00;;;4.93;;
2001;SDS011;1003;48.002;7.788;2022-11-15T10:48:19;5.00;;;4.20;;
2001;SDS011;1003;48.002;7.788;2022-11-15T10:50:51;6.27;;;3.80;;
2001;SDS011;1003;48.002;7.788;2022-11-15T10:53:22;6.70;;;4.17;;
2001;SDS011;1003;48.002;7.788;2022-11-15T10:55:57;6.00;;;3.73;;
2001;SDS011;1003;48.002;7.788;2022-11-15T10:58:31;4.40;;;3.70;;
2001;SDS011;1003;48.002;7.788;2022-11-15T11:01:14;4.63;;;4.10;;
2001;SDS011;1003;48.002;7.788;2022-11-15T11:03:44;5.30;;;4.10;;
2001;SDS011;1003;48.002;7.788;2022-11-15T11:06:25;6.40;;;4.33;;
2001;SDS011;1003;48.002;7.788;2022-11-15T11:08:56;7.10;;;4.43;;
2001;SDS011;1003;48.002;7.788;2022-11-15T11:11:25;6.00;;;4.30;;
2001;SDS011;1003;48.002;7.788;2022-11-15T11:14:12;7.77;;;4.17;;
2001;SDS011;1003;48.002;7.788;2022-11-15T11:16:52;5.20;;;3.73;;
2001;SDS011;1003;48.002;7.788;2022-11-15T11:19:30;8.13;;;4.10;;
2001;SDS011;1003;48.002;7.788;2022-11-15T11:22:17;7.17;;;4.00;;
2001;SDS011;1003;48.002;7.788;2022-11-15T11:24:58;4.87;;;4.10;;
2001;SDS011;1003;48.002;7.788;2022-11-15T11:27:48;4.80;;;3.80;;
2001;SDS011;1003;48.002;7.788;2022-11-15T11:30:39;4.83;;;3.40;;
2001;SDS011;1003;48.002;7.788;2022-11-15T11:33:17;7.50;;;3.97;;
2001;SDS011;1003;48.002;7.788;2022-11-15T11:35:50;5.47;;;3.60;;
2001;SDS011;1003;48.002;7.788;2022-11-15T11:38:38;5.67;;;3.77;;
2001;SDS011;1003;48.002;7.788;2022-11-15T11:41:19;6.07;;;4.17;;
2001;SDS011;1003;48.002;7.788;2022-11-15T11:44:03;5.03;;;3.80;;
2001;SDS011;1003;48.002;7.788;2022-11-15T11:46:48;5.67;;;3.80;;
2001;SDS011;1003;48.002;7.788;2022-11-15T11:49:25;6.50;;;4.03;;
2001;SDS011;1003;48.002;7.788;2022-11-15T11:52:00;7.53;;;4.20;;
2001;SDS011;1003;48.002;7.788;2022-11-15T11:54:39;6.83;;;3.93;;
2001;SDS011;1003;48.002;7.788;2022-11-15T11:57:33;6.40;;;4.23;;
2001;SDS011;1003;48.002;7.788;2022-11-15T12:00:13;9.17;;;4.63;;
2001;SDS011;1003;48.002;7.788;2022-11-15T12:02:47;4.80;;;3.60;;
2001;SDS011;1003;48.002;7.788;2022-11-15T12:05:36;6.87;;;4.23;;
2001;SDS011;1003;48.002;7.788;2022-11-15T12:08:15;7.43;;;4.00;;
2001;SDS011;1003;48.002;7.788;2022-11-15T12:11:01;6.53;;;4.53;;
2001;SDS011;1003;48.002;7.788;2022-11-15T12:13:38;6.10;;;3.90;;
2001;SDS011;1003;48.002;7.788;2022-11-15T12:16:10;5.80;;;4.17;;
2001;SDS011;1003;48.002;7.788;2022-11-15T12:18:44;5.07;;;4.13;;
2001;SDS011;1003;48.002;7.788;2022-11-15T12:21:19;7.37;;;4.30;;
2001;SDS011;1003;48.002;7.788;2022-11-15T12:23:58;4.00;;;3.40;;
2001;SDS011;1003;48.002;7.788;2022-11-15T12:26:32;7.40;;;4.27;;
2001;SDS011;1003;48.002;7.788;2022-11-15T12:29:06;5.50;;;3.93;;
2001;SDS011;1003;48.002;7.788;2022-11-15T12:31:54;6.20;;;4.00;;
2001;SDS011;1003;48.002;7.788;2022-11-15T12:34:39;5.60;;;3.97;;
2001;SDS011;1003;48.002;7.788;2022-11-15T12:40:18;8.30;;;4.63;;
2001;SDS011;1003;48.002;7.788;2022-11-15T12:42:58;6.23;;;3.87;;
2001;SDS011;1003;48.002;7.788;2022-11-15T12:45:52;4.70;;;3.73;;
2001;SDS011;1003;48.002;7.788;2022-11-15T12:57:34;6.17;;;4.40;;
2001;SDS011;1003;48.002;7.788;2022-11-15T13:03:27;5.17;;;3.77;;
2001;SDS011;1003;48.002;7.788;2022-11-15T13:06:03;8.50;;;4.20;;
2001;SDS011;1003;48.002;7.788;2022-11-15T13:08:48;6.00;;;3.70;;
2001;SDS011;1003;48.002;7.788;2022-11-15T13:17:27;7.33;;;3.97;;
2001;SDS011;1003;48.002;7.788;2022-11-15T13:20:00;9.20;;;4.63;;
2001;SDS011;1003;48.002;7.788;2022-11-15T13:22:53;5.87;;;4.33;;
2001;SDS011;1003;48.002;7.788;2022-11-15T13:25:49;5.23;;;3.67;;
2001;SDS011;1003;48.002;7.788;2022-11-15T13:28:41;7.03;;;4.27;;
2001;SDS011;1003;48.002;7.788;2022-11-15T13:31:18;4.17;;;3.60;;
2001;SDS011;1003;48.002;7.788;2022-11-15T13:33:55;5.53;;;3.70;;
2001;SDS011;1003;48.002;7.788;2022-11-15T13:36:27;5.77;;;4.37;;
2001;SDS011;1003;48.002;7.788;2022-11-15T13:39:00;6.60;;;4.20;;
2001;SDS011;1003;48.002;7.788;2022-11-15T13:41:30;6.93;;;4.73;;
2001;SDS011;1003;48.002;7.788;2022-11-15T13:44:01;10.10;;;5.57;;
2001;SDS011;1003;48.002;7.788;2022-11-15T13:46:29;6.40;;;3.97;;
2001;SDS011;1003;48.002;7.788;2022-11-15T13:49:00;4.43;;;3.43;;
2001;SDS011;1003;48.002;7.788;2022-11-15T13:51:31;5.63;;;3.63;;
2001;SDS011;1003;48.002;7.788;2022-11-15T13:54:07;5.50;;;3.60;;
2001;SDS011;1003;48.002;7.788;2022-11-15T13:56:46;5.17;;;3.50;;
2001;SDS011;1003;48.002;7.788;2022-11-15T13:59:23;4.97;;;3.40;;
2001;SDS011;1003;48.002;7.788;2022-11-15T14:01:53;6.77;;;3.53;;
2001;SDS011;1003;48.002;7.788;2022-11-15T14:04:21;5.70;;;3.43;;
2001;SDS011;1003;48.002;7.788;2022-11-15T14:06:55;5.73;;;3.60;;
2001;SDS011;1003;48.002;7.788;2022-11-15T14:09:35;4.57;;;3.50;;
2001;SDS011;1003;48.002;7.788;2022-11-15T14:12:22;5.07;;;3.53;;
2001;SDS011;1003;48.002;7.788;2022-11-15T14:14:55;6.30;;;4.17;;
2001;SDS011;1003;48.002;7.788;2022-11-15T14:17:33;4.70;;;3.70;;
2001;SDS011;1003;48.002;7.788;2022-11-15T14:23:05;4.10;;;3.17;;
2001;SDS011;1003;48.002;7.788;2022-11-15T14:25:51;4.57;;;3.30;;
2001;SDS011;1003;48.002;7.788;2022-11-15T14:28:28;5.83;;;3.60;;
2001;SDS011;1003;48.002;7.788;2022-11-15T14:31:06;5.47;;;3.80;;
2001;SDS011;1003;48.002;7.788;2022-11-15T14:33:38;6.80;;;3.70;;
2001;SDS011;1003;48.002;7.788;2022-11-15T14:36:11;5.10;;;3.90;;
2001;SDS011;1003;48.002;7.788;2022-11-15T14:38:40;7.47;;;3.80;;
2001;SDS011;1003;48.002;7.788;2022-11-15T14:41:10;4.73;;;3.33;;
2001;SDS011;1003;48.002;7.788;2022-11-15T14:43:46;3.90;;;3.17;;
2001;SDS011;1003;48.002;7.788;2022-11-15T14:46:15;4.90;;;3.70;;
2001;SDS011;1003;48.002;7.788;2022-11-15T14:48:43;8.63;;;3.70;;
2001;SDS011;1003;48.002;7.788;2022-11-15T14:51:11;3.47;;;2.87;;
2001;SDS011;1003;48.002;7.788;2022-11-15T14:53:40;3.87;;;3.30;;
2001;SDS011;1003;48.002;7.788;2022-11-15T14:56:08;4.93;;;3.47;;
2001;SDS011;1003;48.002;7.788;2022-11-15T14:58:36;5.10;;;3.70;;
2001;SDS011;1003;48.002;7.788;2022-11-15T15:01:05;6.17;;;3.47;;
2001;SDS011;1003;48.002;7.788;2022-11-15T15:03:41;5.50;;;3.93;;
2001;SDS011;1003;48.002;7.788;2022-11-15T15:06:09;5.03;;;3.60;;
2001;SDS011;1003;48.002;7.788;2022-11-15T15:08:37;6.87;;;4.20;;
2001;SDS011;1003;48.002;7.788;2022-11-15T15:11:07;5.37;;;3.60;;
2001;SDS011;1003;48.002;7.788;2022-11-15T15:13:40;5.33;;;4.10;;
2001;SDS011;1003;48.002;7.788;2022-11-15T15:16:07;5.23;;;4.13;;
2001;SDS011;1003;48.002;7.788;2022-11-15T15:18:34;7.17;;;4.60;;
2001;SDS011;1003;48.002;7.788;2022-11-15T15:21:04;4.57;;;3.97;;
2001;SDS011;1003;48.002;7.788;2022-11-15T15:23:46;6.20;;;4.50;;
2001;SDS011;1003;48.002;7.788;2022-11-15T15:26:13;8.97;;;4.90;;
2001;SDS011;1003;48.002;7.788;2022-11-15T15:28:40;6.50;;;4.23;;
2001;SDS011;1003;48.002;7.788;2022-11-15T15:31:08;6.80;;;4.47;;
2001;SDS011;1003;48.002;7.788;2022-11-15T15:33:36;7.13;;;4.80;;
2001;SDS011;1003;48.002;7.788;2022-11-15T15:36:04;5.87;;;4.47;;
2001;SDS011;1003;48.002;7.788;2022-11-15T15:38:36;5.87;;;4.00;;
2001;SDS011;1003;48.002;7.788;2022-11-15T15:41:06;5.90;;;4.70;;
2001;SDS011;1003;48.002;7.788;2022-11-15T15:43:36;6.67;;;4.33;;
2001;SDS011;1003;48.002;7.788;2022-11-15T15:46:04;6.23;;;4.50;;
2001;SDS011;1003;48.002;7.788;2022-11-15T15:48:35;5.43;;;4.00;;
2001;SDS011;1003;48.002;7.788;2022-11-15T15:51:05;4.93;;;3.87;;
2001;SDS011;1003;48.002;7.788;2022-11-15T15:53:33;7.00;;;4.13;;
2001;SDS011;1003;48.002;7.788;2022-11-15T15:56:00;6.20;;;3.80;;
2001;SDS011;1003;48.002;7.788;2022-11-15T15:58:28;11.03;;;4.53;;
2001;SDS011;1003;48.002;7.788;2022-11-15T16:00:56;8.33;;;4.60;;
2001;SDS011;1003;48.002;7.788;2022-11-15T16:03:23;8.60;;;4.13;;
2001;SDS011;1003;48.002;7.788;2022-11-15T16:05:52;8.70;;;4.00;;
2001;SDS011;1003;48.002;7.788;2022-11-15T16:08:21;5.53;;;3.60;;
2001;SDS011;1003;48.002;7.788;2022-11-15T16:10:51;6.20;;;3.93;;
2001;SDS011;1003;48.002;7.788;2022-11-15T16:13:18;6.43;;;3.50;;
2001;SDS011;1003;48.002;7.788;2022-11-15T16:15:45;4.43;;;3.40;;
2001;SDS011;1003;48.002;7.788;2022-11-15T16:18:18;5.57;;;3.70;;